Terminal Aerodrome Forecast
Issued by NWS Grand Forks, ND

Home | Current Version | Previous Version | Graphics & Text | Print | Product List | Glossary On
Versions: 1 2 3 4 5 6 7 8 9 10 11 12 13 14 15 16 17 18 19 20
000
FTUS43 KFGF 192317 AAB
TAFGFK
TAF AMD
KGFK 192317Z 1923/2018 30006KT P6SM BKN090
      TEMPO 2000/2002 4SM -SHRA OVC040
     FM200200 35005KT P6SM VCSH BKN120
     FM200400 20005KT P6SM SCT150
     FM200600 30007KT P6SM FEW200=

USA.gov is the U.S. government's official web portal to all federal, state and local government web resources and services.